Time;durP1;ratioP1;P1;durP2;ratioP2;P2;SDS_P1;SDS_P2;PMS_P1;PMS_P2;Temp;Humidity;BMP_temperature;BMP_pressure;BME280_temperature;BME280_humidity;BME280_pressure;Samples;Min_cycle;Max_cycle;Signal;HPM_P1;HPM_P2
2022/05/09 00:02:17;;;;;;;21.45;8.02;;;14.60;93.60;;;;;;5093342;28;20059;-73
2022/05/09 00:04:43;;;;;;;13.43;8.50;;;14.50;93.30;;;;;;5093325;28;20115;-73
2022/05/09 00:07:09;;;;;;;13.75;8.82;;;14.30;94.10;;;;;;5093102;28;20534;-72
2022/05/09 00:09:35;;;;;;;18.75;10.13;;;;;;;;;;5093471;28;20055;-72
2022/05/09 00:12:02;;;;;;;20.88;10.13;;;14.10;94.20;;;;;;5092303;28;20020;-73
2022/05/09 00:14:27;;;;;;;17.90;10.45;;;13.80;94.70;;;;;;5075012;28;20361;-72
2022/05/09 00:16:53;;;;;;;16.63;9.68;;;13.80;95.00;;;;;;5093043;28;20069;-73
2022/05/09 00:19:23;;;;;;;13.68;9.07;;;13.70;94.70;;;;;;5093024;28;20024;-73
2022/05/09 00:21:51;;;;;;;14.65;8.77;;;13.70;94.50;;;;;;5092703;28;20082;-72
2022/05/09 00:24:18;;;;;;;12.10;8.07;;;13.70;94.60;;;;;;5093022;28;20077;-73
2022/05/09 00:26:46;;;;;;;11.68;7.43;;;13.70;94.70;;;;;;5046711;28;1314413;-72
2022/05/09 00:29:14;;;;;;;15.07;8.00;;;13.60;94.90;;;;;;5093662;28;20062;-72
2022/05/09 00:31:43;;;;;;;17.20;8.88;;;13.60;95.30;;;;;;5075434;28;20063;-73
2022/05/09 00:34:10;;;;;;;11.63;7.63;;;;;;;;;;5093614;28;20039;-72
2022/05/09 00:36:37;;;;;;;11.15;7.90;;;;;;;;;;5093551;28;20024;-72
2022/05/09 00:39:04;;;;;;;11.77;7.18;;;;;;;;;;5093472;28;20461;-73
2022/05/09 00:41:37;;;;;;;13.35;7.28;;;;;;;;;;5093553;28;20027;-72
2022/05/09 00:44:12;;;;;;;12.68;7.00;;;13.40;95.60;;;;;;5075356;28;20472;-72
2022/05/09 00:46:40;;;;;;;13.32;7.10;;;13.40;96.30;;;;;;5093415;28;20028;-70
2022/05/09 00:49:09;;;;;;;12.23;6.93;;;13.30;96.60;;;;;;5093378;28;20072;-70
2022/05/09 00:51:35;;;;;;;13.05;7.20;;;13.30;96.80;;;;;;5075217;28;20043;-69
2022/05/09 00:54:02;;;;;;;11.57;6.60;;;13.30;96.90;;;;;;5093107;28;20492;-68
2022/05/09 00:56:38;;;;;;;11.48;6.57;;;;;;;;;;5093284;28;20137;-67
2022/05/09 00:59:10;;;;;;;11.93;6.00;;;13.30;97.00;;;;;;5093339;28;20020;-67
2022/05/09 01:01:37;;;;;;;10.20;6.35;;;13.30;97.20;;;;;;5075160;28;20121;-67
2022/05/09 01:04:07;;;;;;;13.90;6.40;;;13.30;97.60;;;;;;5093578;28;20028;-67
2022/05/09 01:06:34;;;;;;;9.75;6.75;;;13.30;97.60;;;;;;5093053;28;20035;-67
2022/05/09 01:08:59;;;;;;;14.48;8.13;;;13.30;97.40;;;;;;5093114;28;20555;-67
2022/05/09 01:11:28;;;;;;;10.30;6.60;;;13.30;97.60;;;;;;5093346;28;20099;-67
2022/05/09 01:14:13;;;;;;;14.00;6.82;;;13.40;98.10;;;;;;5093166;28;20028;-67
2022/05/09 01:16:39;;;;;;;10.52;6.47;;;13.40;98.00;;;;;;5093171;28;20508;-67
2022/05/09 01:19:24;;;;;;;12.10;6.43;;;13.50;98.00;;;;;;5093016;28;20028;-67
2022/05/09 01:21:50;;;;;;;10.40;6.60;;;13.50;98.00;;;;;;5074959;28;20469;-68
2022/05/09 01:24:20;;;;;;;7.65;6.32;;;13.60;98.10;;;;;;5076945;28;20027;-67
2022/05/09 01:26:46;;;;;;;21.17;6.95;;;13.50;98.40;;;;;;5097048;28;20044;-68
2022/05/09 01:29:33;;;;;;;11.00;7.22;;;13.40;98.80;;;;;;5097103;28;20042;-68
2022/05/09 01:32:01;;;;;;;12.88;6.95;;;;;;;;;;5078877;28;20031;-68
2022/05/09 01:34:28;;;;;;;12.60;7.20;;;;;;;;;;5097121;28;20536;-68
2022/05/09 01:36:56;;;;;;;16.52;7.50;;;;;;;;;;5096941;28;20384;-67
2022/05/09 01:39:24;;;;;;;12.95;6.93;;;13.20;99.30;;;;;;5078642;28;20469;-67
2022/05/09 01:41:51;;;;;;;10.65;7.20;;;13.00;99.90;;;;;;5096864;28;20047;-67
2022/05/09 01:44:17;;;;;;;11.05;6.75;;;;;;;;;;5096885;28;20027;-68
2022/05/09 01:49:29;;;;;;;11.40;6.70;;;13.00;99.80;;;;;;5096835;28;20035;-67
2022/05/09 01:51:56;;;;;;;10.95;6.80;;;;;;;;;;5096679;28;20051;-66
2022/05/09 01:54:22;;;;;;;14.88;7.80;;;;;;;;;;5078543;28;20060;-67
2022/05/09 01:56:48;;;;;;;12.18;8.00;;;;;;;;;;5096601;28;20506;-67
2022/05/09 01:59:15;;;;;;;15.27;7.28;;;;;;;;;;5078359;28;20072;-67
2022/05/09 02:01:51;;;;;;;14.35;8.68;;;13.00;99.90;;;;;;5096465;28;20399;-67
2022/05/09 02:04:16;;;;;;;12.93;8.35;;;13.00;99.90;;;;;;5096526;28;20020;-69
2022/05/09 02:06:43;;;;;;;11.38;7.60;;;;;;;;;;5096349;28;20047;-68
2022/05/09 02:09:09;;;;;;;14.45;7.30;;;;;;;;;;5096340;28;20353;-68
2022/05/09 02:11:35;;;;;;;12.85;7.55;;;;;;;;;;5096329;28;20032;-69
2022/05/09 02:14:02;;;;;;;13.10;7.95;;;12.90;99.90;;;;;;5096287;28;20016;-69
2022/05/09 02:16:29;;;;;;;14.90;7.97;;;;;;;;;;5096288;28;20035;-67
2022/05/09 02:18:55;;;;;;;15.35;7.60;;;;;;;;;;5077968;28;20026;-68
2022/05/09 02:21:22;;;;;;;15.23;8.10;;;;;;;;;;5096153;28;20020;-68
2022/05/09 02:23:48;;;;;;;11.85;7.63;;;;;;;;;;5077823;28;20459;-68
2022/05/09 02:26:14;;;;;;;14.15;7.53;;;;;;;;;;5095886;28;20052;-66
2022/05/09 02:28:40;;;;;;;11.98;7.03;;;;;;;;;;5077907;28;20060;-66
2022/05/09 02:31:07;;;;;;;11.95;7.13;;;;;;;;;;5095949;28;20035;-68
2022/05/09 02:33:33;;;;;;;11.43;7.05;;;;;;;;;;5095925;28;20048;-71
2022/05/09 02:35:59;;;;;;;11.77;6.93;;;;;;;;;;5077219;28;20024;-69
2022/05/09 02:38:28;;;;;;;13.13;8.30;;;;;;;;;;5077658;28;20088;-72
2022/05/09 02:40:54;;;;;;;14.52;8.00;;;;;;;;;;5077589;28;20020;-72
2022/05/09 02:43:21;;;;;;;11.18;7.60;;;;;;;;;;5077500;28;20065;-72
2022/05/09 02:45:47;;;;;;;10.38;8.18;;;;;;;;;;5077473;28;20020;-72
2022/05/09 02:48:13;;;;;;;14.00;8.55;;;;;;;;;;5095642;28;20050;-71
2022/05/09 02:50:40;;;;;;;25.30;8.95;;;;;;;;;;5095581;28;20028;-68
2022/05/09 02:53:08;;;;;;;20.23;9.55;;;;;;;;;;5095533;28;20027;-70
2022/05/09 02:55:34;;;;;;;12.27;8.32;;;;;;;;;;5095457;28;20016;-70
2022/05/09 02:58:01;;;;;;;12.25;7.03;;;;;;;;;;5077229;28;20025;-70
2022/05/09 03:00:31;;;;;;;15.10;8.68;;;;;;;;;;5077228;28;20046;-69
2022/05/09 03:05:44;;;;;;;17.42;8.95;;;;;;;;;;5095220;28;20393;-70
2022/05/09 03:08:11;;;;;;;24.33;10.52;;;;;;;;;;5095514;28;20028;-69
2022/05/09 03:10:37;;;;;;;19.92;10.30;;;;;;;;;;5095202;28;20047;-68
2022/05/09 03:13:05;;;;;;;18.58;9.98;;;;;;;;;;5095371;28;20054;-69
2022/05/09 03:15:34;;;;;;;17.38;9.48;;;;;;;;;;5076997;28;20024;-69
2022/05/09 03:18:00;;;;;;;16.05;9.52;;;11.60;99.90;;;;;;5095066;28;20033;-69
2022/05/09 03:20:26;;;;;;;19.88;9.90;;;11.30;99.90;;;;;;5094964;28;20484;-69
2022/05/09 03:22:51;;;;;;;16.13;10.13;;;11.30;99.90;;;;;;5094959;28;20028;-69
2022/05/09 03:25:18;;;;;;;15.75;10.93;;;;;;;;;;5094734;28;20062;-68
2022/05/09 03:27:44;;;;;;;16.75;10.68;;;;;;;;;;5094798;28;20119;-70
2022/05/09 03:30:11;;;;;;;18.70;11.25;;;;;;;;;;5094806;28;20024;-69
2022/05/09 03:32:39;;;;;;;17.17;10.13;;;;;;;;;;5094766;28;20456;-70
2022/05/09 03:35:05;;;;;;;23.05;11.32;;;;;;;;;;5094429;28;20436;-69
2022/05/09 03:37:31;;;;;;;18.10;11.75;;;;;;;;;;5076479;28;20071;-69
2022/05/09 03:39:57;;;;;;;21.00;11.60;;;;;;;;;;5094596;28;20111;-69
2022/05/09 03:42:24;;;;;;;22.00;11.65;;;;;;;;;;5076480;28;20468;-69
2022/05/09 03:44:51;;;;;;;22.17;12.43;;;;;;;;;;5094548;28;20028;-69
2022/05/09 03:47:17;;;;;;;34.65;12.77;;;;;;;;;;5093573;28;20027;-69
2022/05/09 03:49:43;;;;;;;24.95;11.52;;;;;;;;;;5076169;28;20119;-69
2022/05/09 03:52:09;;;;;;;23.13;11.60;;;11.20;99.90;;;;;;5076204;28;20027;-69
2022/05/09 03:54:35;;;;;;;19.90;12.20;;;11.40;99.90;;;;;;5094350;28;20122;-69
2022/05/09 03:57:02;;;;;;;17.58;12.65;;;;;;;;;;5094346;28;20032;-69
2022/05/09 03:59:28;;;;;;;22.45;12.50;;;;;;;;;;5094529;28;20032;-69
2022/05/09 04:01:56;;;;;;;28.30;13.90;;;;;;;;;;5094191;28;20024;-69
2022/05/09 04:04:22;;;;;;;19.95;12.13;;;11.30;99.90;;;;;;5075889;28;20030;-70
2022/05/09 04:06:51;;;;;;;18.65;12.45;;;;;;;;;;5094093;28;20035;-70
2022/05/09 04:09:18;;;;;;;18.67;11.55;;;11.60;99.90;;;;;;5075785;28;20047;-70
2022/05/09 04:11:45;;;;;;;17.90;11.23;;;11.80;99.90;;;;;;5094306;28;20062;-70
2022/05/09 04:14:11;;;;;;;21.38;11.43;;;11.90;99.90;;;;;;5093934;28;20024;-70
2022/05/09 04:16:49;;;;;;;14.13;10.70;;;12.00;99.90;;;;;;5094236;28;20032;-70
2022/05/09 04:19:17;;;;;;;22.20;11.10;;;12.10;99.90;;;;;;5075668;28;20024;-70
2022/05/09 04:21:43;;;;;;;22.40;11.75;;;12.20;99.90;;;;;;5093821;28;20024;-71
2022/05/09 04:24:09;;;;;;;23.83;11.70;;;12.10;99.90;;;;;;5075265;28;20020;-68
2022/05/09 04:26:35;;;;;;;23.30;12.23;;;12.10;99.90;;;;;;5093603;28;20064;-69
2022/05/09 04:29:01;;;;;;;18.58;11.05;;;12.10;99.90;;;;;;5093664;28;20028;-68
2022/05/09 04:31:28;;;;;;;21.45;11.55;;;12.20;99.90;;;;;;5093664;28;20034;-68
2022/05/09 04:33:55;;;;;;;18.25;11.98;;;;;;;;;;5093613;28;20051;-68
2022/05/09 04:36:26;;;;;;;15.95;11.23;;;;;;;;;;5092977;28;20035;-67
2022/05/09 04:38:52;;;;;;;27.73;12.77;;;;;;;;;;5075374;28;20024;-68
2022/05/09 04:41:19;;;;;;;21.70;11.80;;;;;;;;;;5093346;28;20028;-69
2022/05/09 04:43:47;;;;;;;26.85;12.07;;;;;;;;;;5093505;28;20020;-70
2022/05/09 04:46:13;;;;;;;26.88;13.50;;;;;;;;;;5075257;28;20032;-71
2022/05/09 04:48:41;;;;;;;19.88;11.80;;;12.30;99.90;;;;;;5093322;28;20020;-68
2022/05/09 04:51:08;;;;;;;34.42;12.95;;;;;;;;;;5075150;28;20031;-68
2022/05/09 04:53:34;;;;;;;21.63;12.07;;;;;;;;;;5093320;28;20016;-68
2022/05/09 04:56:01;;;;;;;22.25;12.77;;;12.80;99.90;;;;;;5093406;28;20078;-67
2022/05/09 04:58:27;;;;;;;19.55;12.82;;;12.90;99.90;;;;;;5093080;28;20544;-70
2022/05/09 05:00:55;;;;;;;21.38;11.77;;;12.90;99.90;;;;;;5093156;28;20465;-70
2022/05/09 05:03:21;;;;;;;17.13;11.27;;;12.90;99.90;;;;;;5093091;28;20028;-71
2022/05/09 05:05:47;;;;;;;24.25;11.48;;;13.00;99.90;;;;;;5093072;28;20032;-70
2022/05/09 05:08:16;;;;;;;19.13;11.75;;;13.10;99.90;;;;;;5074940;28;20039;-68
2022/05/09 05:10:42;;;;;;;23.38;12.15;;;13.10;99.90;;;;;;5093062;28;20024;-70
2022/05/09 05:13:09;;;;;;;19.83;11.48;;;;;;;;;;5074846;28;20053;-70
2022/05/09 05:15:36;;;;;;;22.55;12.23;;;;;;;;;;5093002;28;20060;-70
2022/05/09 05:18:02;;;;;;;18.98;11.35;;;;;;;;;;5074907;28;20031;-69
2022/05/09 05:20:27;;;;;;;38.13;12.30;;;13.10;99.90;;;;;;5074838;28;20020;-66
2022/05/09 05:22:54;;;;;;;21.23;11.60;;;13.30;99.90;;;;;;5075086;28;20381;-66
2022/05/09 05:25:23;;;;;;;18.77;11.63;;;13.40;99.90;;;;;;5074568;28;20032;-67
2022/05/09 05:27:49;;;;;;;20.25;12.52;;;13.40;99.90;;;;;;5092905;28;20040;-66
2022/05/09 05:30:15;;;;;;;20.73;10.57;;;13.50;99.90;;;;;;5074765;28;20114;-67
2022/05/09 05:32:42;;;;;;;19.65;11.40;;;13.60;99.90;;;;;;5074771;28;20357;-67
2022/05/09 05:35:16;;;;;;;19.85;10.80;;;13.70;99.90;;;;;;5092944;28;20029;-65
2022/05/09 05:37:42;;;;;;;15.38;10.77;;;;;;;;;;5092951;28;20028;-64
2022/05/09 05:40:09;;;;;;;26.45;11.68;;;;;;;;;;5092491;28;20549;-64
2022/05/09 05:42:38;;;;;;;20.63;12.15;;;13.70;99.90;;;;;;5092866;28;20024;-66
2022/05/09 05:45:04;;;;;;;20.88;10.05;;;;;;;;;;5092412;28;20483;-66
2022/05/09 05:47:30;;;;;;;19.70;10.43;;;14.00;99.90;;;;;;5092486;28;20421;-66
2022/05/09 05:49:57;;;;;;;14.60;10.40;;;14.20;99.90;;;;;;5076894;28;20122;-66
2022/05/09 05:52:22;;;;;;;19.05;10.10;;;14.30;99.90;;;;;;5105159;28;20015;-65
2022/05/09 05:54:48;;;;;;;15.50;8.98;;;14.40;99.90;;;;;;5112659;28;20024;-65
2022/05/09 05:57:27;;;;;;;16.38;9.63;;;14.50;99.90;;;;;;5113074;28;20027;-65
2022/05/09 05:59:53;;;;;;;18.63;10.27;;;;;;;;;;5113030;28;20084;-65
2022/05/09 06:02:19;;;;;;;12.95;8.70;;;14.60;99.90;;;;;;5112937;28;20030;-66
2022/05/09 06:04:45;;;;;;;21.02;9.95;;;;;;;;;;5094676;28;20192;-66
2022/05/09 06:07:12;;;;;;;14.13;8.57;;;14.70;99.90;;;;;;5113071;28;20031;-66
2022/05/09 06:09:40;;;;;;;14.13;8.07;;;14.90;99.90;;;;;;5095412;28;20067;-66
2022/05/09 06:12:07;;;;;;;16.10;7.70;;;15.00;99.90;;;;;;5097906;28;20031;-66
2022/05/09 06:14:33;;;;;;;13.60;8.18;;;15.10;99.90;;;;;;5114848;28;20032;-67
2022/05/09 06:16:59;;;;;;;17.67;9.10;;;15.20;99.90;;;;;;5116092;28;20080;-66
2022/05/09 06:19:24;;;;;;;14.70;9.75;;;15.20;99.90;;;;;;5115080;28;20019;-67
2022/05/09 06:21:51;;;;;;;18.38;9.75;;;15.30;99.90;;;;;;5116408;28;20137;-67
2022/05/09 06:24:17;;;;;;;10.88;7.45;;;15.40;99.90;;;;;;5116352;28;20114;-67
2022/05/09 06:26:45;;;;;;;18.17;8.00;;;15.40;99.90;;;;;;5115937;28;20050;-67
2022/05/09 06:29:11;;;;;;;13.40;7.72;;;15.50;99.90;;;;;;5097895;28;20368;-67
2022/05/09 06:31:40;;;;;;;11.35;8.00;;;15.60;99.90;;;;;;5116264;28;20023;-66
2022/05/09 06:34:11;;;;;;;12.02;6.75;;;;;;;;;;5116127;28;20023;-66
2022/05/09 06:36:37;;;;;;;14.47;6.83;;;;;;;;;;5116179;28;20114;-65
2022/05/09 06:39:04;;;;;;;15.80;7.00;;;;;;;;;;5116083;28;20019;-66
2022/05/09 06:41:30;;;;;;;9.10;5.93;;;;;;;;;;5097718;28;20035;-66
2022/05/09 06:43:56;;;;;;;13.80;6.32;;;;;;;;;;5097739;28;20028;-66
2022/05/09 06:46:23;;;;;;;13.85;6.25;;;;;;;;;;5097527;28;20062;-66
2022/05/09 06:48:49;;;;;;;13.68;6.20;;;15.60;99.90;;;;;;5115953;28;20026;-66
2022/05/09 06:51:15;;;;;;;9.23;5.13;;;16.20;99.90;;;;;;5115699;28;20023;-66
2022/05/09 06:53:41;;;;;;;13.32;6.47;;;16.30;99.90;;;;;;5115894;28;20051;-66
2022/05/09 06:56:08;;;;;;;13.45;6.82;;;16.30;99.90;;;;;;5115468;28;20034;-67
2022/05/09 06:58:34;;;;;;;13.90;6.68;;;16.40;99.90;;;;;;5115830;28;20024;-67
2022/05/09 07:01:00;;;;;;;12.43;6.55;;;;;;;;;;5097341;28;20517;-66
2022/05/09 07:03:27;;;;;;;9.27;6.93;;;16.50;99.90;;;;;;5115637;28;20107;-66
2022/05/09 07:05:55;;;;;;;11.27;6.38;;;16.70;99.90;;;;;;5097195;28;20028;-67
2022/05/09 07:08:23;;;;;;;12.65;5.78;;;16.90;99.90;;;;;;5115685;28;20055;-66
2022/05/09 07:10:49;;;;;;;12.15;5.68;;;17.00;99.90;;;;;;5097158;28;20031;-67
2022/05/09 07:13:15;;;;;;;14.60;6.95;;;17.20;99.90;;;;;;5097147;28;20023;-67
2022/05/09 07:15:41;;;;;;;12.75;5.47;;;17.20;99.90;;;;;;5096950;28;20357;-67
2022/05/09 07:18:07;;;;;;;11.63;5.00;;;17.30;99.90;;;;;;5115196;28;20023;-67
2022/05/09 07:20:34;;;;;;;10.02;5.70;;;17.40;99.90;;;;;;5114811;28;20030;-66
2022/05/09 07:23:11;;;;;;;13.57;5.00;;;17.60;99.90;;;;;;5114634;28;20024;-68
2022/05/09 07:25:38;;;;;;;14.25;5.13;;;17.60;99.90;;;;;;5114801;28;20044;-67
2022/05/09 07:28:04;;;;;;;12.85;5.97;;;17.60;99.90;;;;;;5115209;28;20036;-67
2022/05/09 07:30:31;;;;;;;13.52;5.75;;;17.80;99.90;;;;;;5114930;28;20027;-67
2022/05/09 07:32:57;;;;;;;13.65;4.93;;;17.90;99.90;;;;;;5115088;28;20031;-67
2022/05/09 07:35:23;;;;;;;9.18;4.65;;;18.10;99.90;;;;;;5115070;28;20023;-67
2022/05/09 07:37:49;;;;;;;10.32;4.60;;;18.20;99.90;;;;;;5096303;28;20054;-71
2022/05/09 07:40:17;;;;;;;11.05;4.72;;;18.30;99.90;;;;;;5075697;28;20430;-71
2022/05/09 07:42:45;;;;;;;9.27;4.15;;;18.40;99.90;;;;;;5094079;28;20028;-72
2022/05/09 07:45:12;;;;;;;9.05;4.05;;;18.40;99.90;;;;;;5094484;28;20027;-73
2022/05/09 07:47:39;;;;;;;13.32;4.70;;;18.60;99.90;;;;;;5093346;28;20102;-71
2022/05/09 07:50:06;;;;;;;13.90;5.47;;;18.80;99.90;;;;;;5076103;28;20448;-72
2022/05/09 07:52:32;;;;;;;8.65;3.80;;;18.80;99.90;;;;;;5075997;28;20052;-73
2022/05/09 07:54:58;;;;;;;16.05;4.82;;;19.10;99.90;;;;;;5094371;28;20060;-73
2022/05/09 07:57:25;;;;;;;7.00;4.10;;;19.20;99.90;;;;;;5094455;28;20431;-72
2022/05/09 07:59:51;;;;;;;9.15;4.30;;;19.30;99.90;;;;;;5094005;28;20027;-72
2022/05/09 08:02:16;;;;;;;15.77;3.63;;;19.40;99.90;;;;;;5094264;28;20120;-72
2022/05/09 08:04:42;;;;;;;12.77;4.32;;;19.50;99.50;;;;;;5075736;28;20035;-72
2022/05/09 08:07:09;;;;;;;19.05;4.82;;;;;;;;;;5093839;28;20081;-72
2022/05/09 08:09:35;;;;;;;12.40;4.70;;;19.60;98.90;;;;;;5093970;28;20128;-75
2022/05/09 08:12:03;;;;;;;12.52;4.22;;;19.70;99.90;;;;;;5075414;28;20123;-75
2022/05/09 08:14:29;;;;;;;12.60;4.68;;;;;;;;;;5075558;28;20024;-75
2022/05/09 08:16:56;;;;;;;15.75;5.20;;;20.10;97.10;;;;;;5075558;28;20028;-73
2022/05/09 08:19:23;;;;;;;12.27;3.40;;;20.30;97.90;;;;;;5093741;28;20038;-72
2022/05/09 08:21:52;;;;;;;7.28;3.85;;;20.40;97.00;;;;;;5075577;28;20047;-70
2022/05/09 08:24:18;;;;;;;11.10;4.43;;;20.50;94.40;;;;;;5093516;28;20461;-70
2022/05/09 08:26:44;;;;;;;10.38;3.53;;;20.60;95.20;;;;;;5093531;28;20048;-70
2022/05/09 08:29:10;;;;;;;13.45;4.35;;;20.80;94.80;;;;;;5093554;28;20097;-71
2022/05/09 08:31:36;;;;;;;6.55;3.28;;;20.90;96.00;;;;;;5093522;28;20027;-71
2022/05/09 08:34:02;;;;;;;6.32;3.70;;;21.10;95.10;;;;;;5092830;28;20134;-73
2022/05/09 08:36:48;;;;;;;7.88;3.45;;;21.40;95.30;;;;;;5075270;28;20559;-72
2022/05/09 08:39:15;;;;;;;4.70;3.00;;;21.40;95.10;;;;;;5093441;28;20376;-73
2022/05/09 08:41:55;;;;;;;5.72;3.05;;;21.50;93.50;;;;;;5093320;28;20103;-69
2022/05/09 08:44:43;;;;;;;6.88;4.13;;;21.70;91.80;;;;;;5093385;28;20035;-73
2022/05/09 08:47:23;;;;;;;8.73;3.72;;;21.80;93.30;;;;;;5075036;28;20039;-72
2022/05/09 08:50:24;;;;;;;9.00;3.33;;;21.90;92.40;;;;;;5093240;28;20032;-72
2022/05/09 08:52:59;;;;;;;16.20;3.83;;;22.20;91.90;;;;;;5093084;28;20472;-72
2022/05/09 08:55:28;;;;;;;9.85;3.42;;;22.40;93.50;;;;;;5092956;28;20028;-73
2022/05/09 08:58:45;;;;;;;12.90;4.25;;;22.40;88.40;;;;;;5093177;28;20415;-73
2022/05/09 09:01:13;;;;;;;9.63;4.30;;;22.60;87.90;;;;;;4974927;28;20022;-73
2022/05/09 09:03:43;;;;;;;8.57;3.45;;;22.80;90.30;;;;;;4991211;28;20034;-73
2022/05/09 09:06:23;;;;;;;5.82;3.30;;;22.90;89.50;;;;;;4989720;28;20045;-73
2022/05/09 09:09:05;;;;;;;6.10;3.22;;;23.10;87.20;;;;;;4990226;28;20046;-73
2022/05/09 09:11:51;;;;;;;10.10;3.40;;;23.00;82.70;;;;;;4974894;28;20061;-72
2022/05/09 09:14:43;;;;;;;8.93;3.05;;;23.00;81.00;;;;;;4991029;28;20100;-72
2022/05/09 09:17:27;;;;;;;10.20;3.50;;;23.30;81.80;;;;;;4974180;28;20133;-72
2022/05/09 09:19:59;;;;;;;7.15;3.15;;;23.50;79.00;;;;;;4991112;28;20030;-72
2022/05/09 09:22:33;;;;;;;13.70;3.38;;;23.80;81.60;;;;;;4991859;28;20196;-73
2022/05/09 09:25:26;;;;;;;6.03;3.15;;;24.00;74.70;;;;;;4990954;28;20136;-73
2022/05/09 09:28:00;;;;;;;10.43;2.90;;;24.20;71.10;;;;;;4974543;28;20050;-73
2022/05/09 09:30:26;;;;;;;3.90;2.22;;;24.40;68.70;;;;;;4991204;28;20047;-74
2022/05/09 09:32:57;;;;;;;10.52;3.22;;;24.50;67.80;;;;;;4990938;28;20094;-72
2022/05/09 09:36:06;;;;;;;16.75;3.78;;;24.80;66.60;;;;;;5050034;28;20036;-72
2022/05/09 09:38:55;;;;;;;8.18;3.20;;;24.80;70.90;;;;;;5092359;28;20016;-70
2022/05/09 09:41:30;;;;;;;6.70;2.85;;;25.00;68.40;;;;;;5092848;28;20449;-72
2022/05/09 09:44:13;;;;;;;4.15;3.38;;;25.20;72.90;;;;;;5092400;28;20054;-71
2022/05/09 09:47:00;;;;;;;13.48;3.50;;;25.30;70.00;;;;;;5078484;28;20439;-71
2022/05/09 09:49:26;;;;;;;11.55;3.47;;;25.10;67.30;;;;;;5096743;28;20032;-70
2022/05/09 09:51:52;;;;;;;8.85;2.83;;;25.00;69.70;;;;;;5096643;28;20034;-71
2022/05/09 09:54:21;;;;;;;9.82;2.75;;;24.80;69.20;;;;;;5096445;28;20054;-68
2022/05/09 09:56:47;;;;;;;7.65;3.05;;;24.70;67.40;;;;;;5096422;28;20035;-74
2022/05/09 09:59:23;;;;;;;11.77;3.10;;;24.80;68.40;;;;;;5078199;28;20055;-71
2022/05/09 10:02:19;;;;;;;6.68;2.65;;;25.10;67.20;;;;;;5100530;28;20030;-72
2022/05/09 10:04:46;;;;;;;9.00;2.42;;;25.20;66.10;;;;;;5096334;28;20112;-73
2022/05/09 10:07:28;;;;;;;6.75;2.72;;;25.70;64.70;;;;;;5095294;28;20056;-74
2022/05/09 10:10:04;;;;;;;13.02;2.95;;;26.10;66.10;;;;;;5077710;28;20024;-71
2022/05/09 10:12:32;;;;;;;7.38;3.13;;;26.40;62.90;;;;;;5077785;28;20525;-74
2022/05/09 10:14:57;;;;;;;8.02;2.55;;;26.60;64.40;;;;;;5077770;28;20039;-77
2022/05/09 10:17:26;;;;;;;7.70;3.30;;;26.70;66.20;;;;;;5095352;28;20469;-73
2022/05/09 10:19:54;;;;;;;6.32;2.95;;;26.90;62.10;;;;;;5077684;28;20428;-75
2022/05/09 10:25:17;;;;;;;10.23;2.88;;;;;;;;;;5095359;28;20422;-74
2022/05/09 10:27:44;;;;;;;9.10;2.45;;;27.00;60.70;;;;;;5077494;28;20606;-72
2022/05/09 10:30:30;;;;;;;8.65;2.88;;;27.70;59.30;;;;;;5099818;28;20027;-71
2022/05/09 10:33:08;;;;;;;9.55;3.60;;;28.20;60.70;;;;;;5084655;28;20034;-71
2022/05/09 10:35:40;;;;;;;4.30;2.60;;;28.70;58.70;;;;;;5077397;28;20065;-72
2022/05/09 10:38:19;;;;;;;7.90;2.45;;;29.10;56.00;;;;;;5095345;28;20377;-71
2022/05/09 10:40:54;;;;;;;7.85;2.60;;;29.10;53.00;;;;;;5095671;28;20449;-71
2022/05/09 10:43:31;;;;;;;5.55;2.55;;;29.40;55.10;;;;;;5077271;28;20334;-72
2022/05/09 10:45:59;;;;;;;9.82;3.03;;;29.80;57.30;;;;;;5095209;28;20031;-72
2022/05/09 10:48:45;;;;;;;9.15;3.30;;;30.00;54.00;;;;;;5077277;28;20038;-72
2022/05/09 10:51:28;;;;;;;13.13;3.08;;;29.60;54.10;;;;;;5095102;28;20028;-73
2022/05/09 10:54:18;;;;;;;6.10;2.60;;;30.90;53.30;;;;;;5095186;28;20095;-72
2022/05/09 10:56:57;;;;;;;3.63;2.40;;;;;;;;;;5094924;28;20032;-77
2022/05/09 10:59:27;;;;;;;10.00;3.60;;;31.90;53.40;;;;;;5095283;28;20077;-79
2022/05/09 11:02:02;;;;;;;11.25;3.33;;;31.90;53.90;;;;;;5095164;28;20097;-77
2022/05/09 11:04:32;;;;;;;12.38;3.10;;;;;;;;;;5077062;28;20499;-75
2022/05/09 11:07:11;;;;;;;10.03;3.70;;;33.00;48.00;;;;;;5076865;28;20025;-75
2022/05/09 11:09:52;;;;;;;12.95;3.10;;;34.10;48.10;;;;;;5095106;28;20098;-77
2022/05/09 11:12:36;;;;;;;19.25;4.30;;;34.10;48.70;;;;;;5076909;28;20024;-75
2022/05/09 11:15:03;;;;;;;5.88;2.53;;;;;;;;;;5094657;28;20465;-74
2022/05/09 11:18:20;;;;;;;2.95;2.20;;;35.10;67.10;;;;;;5076781;28;20020;-75
2022/05/09 11:20:47;;;;;;;11.23;2.60;;;;;;;;;;5055739;28;20488;-76
2022/05/09 11:23:36;;;;;;;6.13;2.70;;;34.20;45.90;;;;;;5076751;28;20433;-77
2022/05/09 11:26:07;;;;;;;6.40;2.60;;;34.20;50.30;;;;;;5042877;28;20039;-77
2022/05/09 11:28:36;;;;;;;;;;;34.40;47.40;;;;;;5092822;28;20089;-75
2022/05/09 11:31:09;;;;;;;11.85;3.70;;;34.70;48.00;;;;;;5083592;28;19903;-71
2022/05/09 11:33:58;;;;;;;13.02;4.18;;;35.40;47.80;;;;;;5103742;28;20032;-75
2022/05/09 11:37:05;;;;;;;8.63;2.90;;;35.90;46.70;;;;;;5094241;28;20101;-79
2022/05/09 11:40:09;;;;;;;5.95;2.58;;;35.90;44.20;;;;;;5092663;28;20020;-78
2022/05/09 11:46:08;;;;;;;7.93;2.63;;;36.60;41.60;;;;;;5114412;28;20068;-79
2022/05/09 11:49:01;;;;;;;3.38;2.30;;;36.50;42.70;;;;;;5114669;28;20429;-77
2022/05/09 11:51:36;;;;;;;6.57;2.55;;;36.50;42.00;;;;;;5114585;28;20028;-77
2022/05/09 11:54:13;;;;;;;5.15;2.30;;;37.10;41.10;;;;;;5096177;28;20475;-77
2022/05/09 11:56:53;;;;;;;7.57;2.58;;;37.30;40.50;;;;;;5114262;28;20028;-72
2022/05/09 11:59:25;;;;;;;5.28;2.30;;;36.70;41.90;;;;;;5114441;28;20026;-72
2022/05/09 12:02:06;;;;;;;9.73;3.00;;;36.90;42.40;;;;;;5114287;28;20034;-72
2022/05/09 12:04:43;;;;;;;6.15;2.65;;;37.00;43.60;;;;;;5114389;28;20140;-77
2022/05/09 12:07:21;;;;;;;5.00;2.38;;;36.90;44.70;;;;;;5113426;28;20460;-73
2022/05/09 12:10:11;;;;;;;5.03;2.20;;;37.20;42.40;;;;;;5095836;28;20173;-73
2022/05/09 12:12:37;;;;;;;5.70;2.13;;;37.50;44.30;;;;;;5095803;28;20023;-71
2022/05/09 12:15:26;;;;;;;6.88;2.30;;;38.00;42.50;;;;;;5095847;28;20357;-74
2022/05/09 12:17:58;;;;;;;6.40;2.70;;;37.50;42.10;;;;;;5100300;28;20048;-72
2022/05/09 12:20:27;;;;;;;11.95;3.53;;;;;;;;;;5114094;28;20495;-72
2022/05/09 12:22:54;;;;;;;4.25;2.42;;;37.00;43.10;;;;;;5113926;28;20019;-74
2022/05/09 12:25:44;;;;;;;5.15;2.22;;;38.80;42.30;;;;;;5095418;28;20107;-74
2022/05/09 12:28:26;;;;;;;5.18;2.33;;;39.20;46.20;;;;;;5113861;28;20472;-73
2022/05/09 12:31:04;;;;;;;5.22;2.10;;;40.00;40.50;;;;;;5113967;28;20032;-74
2022/05/09 12:33:36;;;;;;;5.60;2.45;;;40.30;41.60;;;;;;5113720;28;20109;-75
2022/05/09 12:36:05;;;;;;;4.90;2.83;;;;;;;;;;5095436;28;20408;-74
2022/05/09 12:38:33;;;;;;;5.28;2.08;;;;;;;;;;5095173;28;20020;-75
2022/05/09 12:41:11;;;;;;;3.65;2.08;;;40.90;39.30;;;;;;5113673;28;20110;-76
2022/05/09 12:43:41;;;;;;;12.32;2.35;;;42.10;38.50;;;;;;5095288;28;20063;-75
2022/05/09 12:46:15;;;;;;;7.32;2.80;;;42.50;37.00;;;;;;5095111;28;20027;-75
2022/05/09 12:48:41;;;;;;;3.75;2.20;;;42.40;38.10;;;;;;5113150;28;20498;-78
2022/05/09 12:51:13;;;;;;;8.85;2.70;;;42.50;37.90;;;;;;5095125;28;20023;-78
2022/05/09 12:53:40;;;;;;;6.85;2.70;;;42.80;40.10;;;;;;5113359;28;20023;-73
2022/05/09 12:56:24;;;;;;;8.98;2.22;;;42.70;38.50;;;;;;5094076;28;20384;-76
2022/05/09 12:59:20;;;;;;;4.03;2.40;;;;;;;;;;5113344;28;20448;-76
2022/05/09 13:01:55;;;;;;;5.60;2.28;;;;;;;;;;5091856;28;20074;-77
2022/05/09 13:04:26;;;;;;;4.15;2.40;;;;;;;;;;5095241;28;20542;-77
2022/05/09 13:07:00;;;;;;;4.60;2.33;;;43.10;38.10;;;;;;5094889;28;20110;-77
2022/05/09 13:09:28;;;;;;;6.35;2.42;;;;;;;;;;5094008;28;20102;-76
2022/05/09 13:12:01;;;;;;;9.48;2.38;;;43.20;37.80;;;;;;5094508;28;20459;-75
2022/05/09 13:15:00;;;;;;;4.95;2.33;;;42.50;36.70;;;;;;5093588;28;20046;-77
2022/05/09 13:17:41;;;;;;;6.18;2.55;;;42.70;37.40;;;;;;5090435;28;20040;-76
2022/05/09 13:20:12;;;;;;;6.97;2.25;;;43.20;37.20;;;;;;5116028;28;20372;-76
2022/05/09 13:22:42;;;;;;;5.22;2.35;;;;;;;;;;5116422;28;20109;-77
2022/05/09 13:25:13;;;;;;;5.33;2.43;;;;;;;;;;5117035;28;20433;-76
2022/05/09 13:27:38;;;;;;;3.63;2.65;;;43.60;35.70;;;;;;5117375;28;20528;-77
2022/05/09 13:30:07;;;;;;;2.75;1.90;;;43.80;36.40;;;;;;5117820;28;20031;-75
2022/05/09 13:32:35;;;;;;;6.80;2.15;;;43.60;36.00;;;;;;5099035;28;20031;-78
2022/05/09 13:35:30;;;;;;;4.38;2.10;;;44.40;35.00;;;;;;5098952;28;20030;-76
2022/05/09 13:37:56;;;;;;;5.95;2.50;;;44.10;36.00;;;;;;5099126;28;20492;-77
2022/05/09 13:40:24;;;;;;;6.38;2.15;;;44.30;37.60;;;;;;5098827;28;20413;-77